sensor_id;sensor_type;location;lat;lon;timestamp;pressure;altitude;pressure_sealevel;temperature;humidity
62524;BME280;53689;56.878;60.672;2024-01-30T00:00:57;98442.84;;;21.73;25.05
62524;BME280;53689;56.878;60.672;2024-01-30T00:03:26;98439.75;;;21.76;23.91
62524;BME280;53689;56.878;60.672;2024-01-30T00:05:54;98443.44;;;21.68;24.58
62524;BME280;53689;56.878;60.672;2024-01-30T00:08:26;98437.06;;;21.76;24.79
62524;BME280;53689;56.878;60.672;2024-01-30T00:10:55;98435.84;;;21.79;24.68
62524;BME280;53689;56.878;60.672;2024-01-30T00:13:23;98437.28;;;21.74;24.69
62524;BME280;53689;56.878;60.672;2024-01-30T00:15:51;98425.28;;;21.77;24.83
62524;BME280;53689;56.878;60.672;2024-01-30T00:18:19;98427.31;;;21.75;24.56
62524;BME280;53689;56.878;60.672;2024-01-30T00:20:47;98415.50;;;21.76;24.57
62524;BME280;53689;56.878;60.672;2024-01-30T00:23:15;98422.38;;;21.79;24.23
62524;BME280;53689;56.878;60.672;2024-01-30T00:25:43;98421.34;;;21.80;25.25
62524;BME280;53689;56.878;60.672;2024-01-30T00:28:12;98418.88;;;21.78;24.38
62524;BME280;53689;56.878;60.672;2024-01-30T00:30:40;98422.38;;;21.79;24.89
62524;BME280;53689;56.878;60.672;2024-01-30T00:33:08;98413.66;;;21.76;24.91
62524;BME280;53689;56.878;60.672;2024-01-30T00:35:36;98418.66;;;21.80;24.57
62524;BME280;53689;56.878;60.672;2024-01-30T00:38:04;98414.28;;;21.79;24.15
62524;BME280;53689;56.878;60.672;2024-01-30T00:40:32;98400.19;;;21.76;23.72
62524;BME280;53689;56.878;60.672;2024-01-30T00:43:00;98400.81;;;21.79;24.65
62524;BME280;53689;56.878;60.672;2024-01-30T00:45:29;98403.50;;;21.79;24.05
62524;BME280;53689;56.878;60.672;2024-01-30T00:47:58;98401.44;;;21.81;24.57
62524;BME280;53689;56.878;60.672;2024-01-30T00:50:26;98392.72;;;21.79;24.91
62524;BME280;53689;56.878;60.672;2024-01-30T00:52:54;98388.63;;;21.83;24.17
62524;BME280;53689;56.878;60.672;2024-01-30T00:55:22;98387.97;;;21.81;23.63
62524;BME280;53689;56.878;60.672;2024-01-30T00:57:50;98383.63;;;21.80;24.59
62524;BME280;53689;56.878;60.672;2024-01-30T01:00:18;98379.25;;;21.79;25.01
62524;BME280;53689;56.878;60.672;2024-01-30T01:02:48;98380.47;;;21.76;25.09
62524;BME280;53689;56.878;60.672;2024-01-30T01:05:17;98385.09;;;21.82;24.63
62524;BME280;53689;56.878;60.672;2024-01-30T01:07:45;98379.88;;;21.81;24.17
62524;BME280;53689;56.878;60.672;2024-01-30T01:10:13;98386.97;;;21.82;24.37
62524;BME280;53689;56.878;60.672;2024-01-30T01:12:41;98386.97;;;21.82;24.69
62524;BME280;53689;56.878;60.672;2024-01-30T01:15:09;98379.88;;;21.81;23.99
62524;BME280;53689;56.878;60.672;2024-01-30T01:17:38;98380.91;;;21.80;24.70
62524;BME280;53689;56.878;60.672;2024-01-30T01:20:08;98371.31;;;21.70;25.19
62524;BME280;53689;56.878;60.672;2024-01-30T01:22:37;98370.13;;;21.80;24.71
62524;BME280;53689;56.878;60.672;2024-01-30T01:25:06;98368.34;;;21.87;24.76
62524;BME280;53689;56.878;60.672;2024-01-30T01:27:34;98366.84;;;21.84;24.16
62524;BME280;53689;56.878;60.672;2024-01-30T01:30:02;98361.88;;;21.81;24.38
62524;BME280;53689;56.878;60.672;2024-01-30T01:32:30;98361.28;;;21.86;24.83
62524;BME280;53689;56.878;60.672;2024-01-30T01:34:59;98356.06;;;21.84;24.56
62524;BME280;53689;56.878;60.672;2024-01-30T01:37:28;98354.22;;;21.85;25.22
62524;BME280;53689;56.878;60.672;2024-01-30T01:39:56;98348.84;;;21.85;24.18
62524;BME280;53689;56.878;60.672;2024-01-30T01:42:24;98347.16;;;21.84;24.62
62524;BME280;53689;56.878;60.672;2024-01-30T01:44:52;98348.41;;;21.81;24.73
62524;BME280;53689;56.878;60.672;2024-01-30T01:47:21;98349.06;;;21.90;25.07
62524;BME280;53689;56.878;60.672;2024-01-30T01:49:49;98343.25;;;21.86;24.35
62524;BME280;53689;56.878;60.672;2024-01-30T01:52:17;98339.09;;;21.84;24.47
62524;BME280;53689;56.878;60.672;2024-01-30T01:54:47;98335.81;;;21.88;25.03
62524;BME280;53689;56.878;60.672;2024-01-30T01:57:14;98333.09;;;21.88;24.58
62524;BME280;53689;56.878;60.672;2024-01-30T01:59:42;98337.88;;;21.86;24.08
62524;BME280;53689;56.878;60.672;2024-01-30T02:02:11;98336.63;;;21.89;24.47
62524;BME280;53689;56.878;60.672;2024-01-30T02:04:40;98335.59;;;21.90;24.84
62524;BME280;53689;56.878;60.672;2024-01-30T02:07:09;98334.94;;;21.88;24.40
62524;BME280;53689;56.878;60.672;2024-01-30T02:09:38;98333.69;;;21.84;25.01
62524;BME280;53689;56.878;60.672;2024-01-30T02:12:07;98322.94;;;21.90;24.28
62524;BME280;53689;56.878;60.672;2024-01-30T02:14:43;98324.41;;;21.86;23.87
62524;BME280;53689;56.878;60.672;2024-01-30T02:17:12;98323.78;;;21.91;24.99
62524;BME280;53689;56.878;60.672;2024-01-30T02:19:39;98326.28;;;21.93;24.60
62524;BME280;53689;56.878;60.672;2024-01-30T02:22:09;98325.84;;;21.89;23.37
62524;BME280;53689;56.878;60.672;2024-01-30T02:24:38;98318.78;;;21.88;25.77
62524;BME280;53689;56.878;60.672;2024-01-30T02:27:06;98317.38;;;21.92;24.11
62524;BME280;53689;56.878;60.672;2024-01-30T02:29:34;98320.25;;;21.90;24.74
62524;BME280;53689;56.878;60.672;2024-01-30T02:32:02;98308.41;;;21.85;25.07
62524;BME280;53689;56.878;60.672;2024-01-30T02:34:29;98307.63;;;21.91;24.78
62524;BME280;53689;56.878;60.672;2024-01-30T02:36:58;98299.28;;;21.86;24.71
62524;BME280;53689;56.878;60.672;2024-01-30T02:39:28;98290.16;;;21.87;24.72
62524;BME280;53689;56.878;60.672;2024-01-30T02:41:56;98291.63;;;21.83;24.34
62524;BME280;53689;56.878;60.672;2024-01-30T02:44:24;98295.16;;;21.90;23.36
62524;BME280;53689;56.878;60.672;2024-01-30T02:46:52;98287.66;;;21.85;24.20
62524;BME280;53689;56.878;60.672;2024-01-30T02:49:20;98277.09;;;21.84;24.22
62524;BME280;53689;56.878;60.672;2024-01-30T02:51:49;98282.28;;;21.85;24.03
62524;BME280;53689;56.878;60.672;2024-01-30T02:54:17;98279.31;;;21.73;24.71
62524;BME280;53689;56.878;60.672;2024-01-30T02:56:46;98277.69;;;21.79;24.94
62524;BME280;53689;56.878;60.672;2024-01-30T02:59:15;98276.25;;;21.83;25.27
62524;BME280;53689;56.878;60.672;2024-01-30T03:01:43;98271.13;;;21.88;24.68
62524;BME280;53689;56.878;60.672;2024-01-30T03:04:11;98273.38;;;21.85;24.54
62524;BME280;53689;56.878;60.672;2024-01-30T03:06:44;98267.78;;;21.86;24.86
62524;BME280;53689;56.878;60.672;2024-01-30T03:09:13;98276.88;;;21.85;24.63
62524;BME280;53689;56.878;60.672;2024-01-30T03:11:40;98265.91;;;21.87;24.69
62524;BME280;53689;56.878;60.672;2024-01-30T03:14:10;98263.22;;;21.87;24.91
62524;BME280;53689;56.878;60.672;2024-01-30T03:16:38;98265.31;;;21.92;23.62
62524;BME280;53689;56.878;60.672;2024-01-30T03:19:06;98260.13;;;21.90;24.86
62524;BME280;53689;56.878;60.672;2024-01-30T03:21:34;98260.78;;;21.92;24.83
62524;BME280;53689;56.878;60.672;2024-01-30T03:24:03;98260.13;;;21.90;24.87
62524;BME280;53689;56.878;60.672;2024-01-30T03:26:31;98253.50;;;21.93;24.34
62524;BME280;53689;56.878;60.672;2024-01-30T03:28:58;98260.34;;;21.95;23.33
62524;BME280;53689;56.878;60.672;2024-01-30T03:31:28;98259.09;;;21.91;24.23
62524;BME280;53689;56.878;60.672;2024-01-30T03:33:56;98268.03;;;21.98;24.62
62524;BME280;53689;56.878;60.672;2024-01-30T03:36:24;98260.78;;;21.92;24.85
62524;BME280;53689;56.878;60.672;2024-01-30T03:38:52;98253.50;;;21.93;24.47
62524;BME280;53689;56.878;60.672;2024-01-30T03:41:20;98258.06;;;21.92;23.20
62524;BME280;53689;56.878;60.672;2024-01-30T03:43:48;98246.44;;;21.92;24.31
62524;BME280;53689;56.878;60.672;2024-01-30T03:46:16;98247.28;;;21.92;24.06
62524;BME280;53689;56.878;60.672;2024-01-30T03:48:45;98241.91;;;21.99;24.10
62524;BME280;53689;56.878;60.672;2024-01-30T03:51:13;98242.53;;;21.94;23.93
62524;BME280;53689;56.878;60.672;2024-01-30T03:53:42;98250.00;;;21.99;24.64
62524;BME280;53689;56.878;60.672;2024-01-30T03:56:10;98240.69;;;22.01;24.28
62524;BME280;53689;56.878;60.672;2024-01-30T03:58:37;98238.38;;;21.98;24.88
62524;BME280;53689;56.878;60.672;2024-01-30T04:01:06;98240.44;;;21.96;23.54
62524;BME280;53689;56.878;60.672;2024-01-30T04:03:34;98236.31;;;22.00;24.69
62524;BME280;53689;56.878;60.672;2024-01-30T04:06:03;98235.31;;;22.01;23.95
62524;BME280;53689;56.878;60.672;2024-01-30T04:08:32;98225.94;;;21.97;24.57
62524;BME280;53689;56.878;60.672;2024-01-30T04:11:03;98226.19;;;22.02;24.70
62524;BME280;53689;56.878;60.672;2024-01-30T04:13:31;98219.94;;;22.02;24.10
62524;BME280;53689;56.878;60.672;2024-01-30T04:15:59;98229.69;;;22.03;23.99
62524;BME280;53689;56.878;60.672;2024-01-30T04:18:28;98222.44;;;22.03;24.28
62524;BME280;53689;56.878;60.672;2024-01-30T04:20:55;98219.75;;;22.03;23.60
62524;BME280;53689;56.878;60.672;2024-01-30T04:23:25;98213.13;;;22.06;24.66
62524;BME280;53689;56.878;60.672;2024-01-30T04:25:53;98216.22;;;22.03;24.12
62524;BME280;53689;56.878;60.672;2024-01-30T04:28:21;98212.91;;;22.08;24.73
62524;BME280;53689;56.878;60.672;2024-01-30T04:30:49;98205.84;;;22.07;24.61
62524;BME280;53689;56.878;60.672;2024-01-30T04:33:17;98206.28;;;22.03;23.79
62524;BME280;53689;56.878;60.672;2024-01-30T04:35:45;98207.94;;;22.04;24.24
62524;BME280;53689;56.878;60.672;2024-01-30T04:38:14;98202.53;;;22.04;22.94
62524;BME280;53689;56.878;60.672;2024-01-30T04:40:43;98204.63;;;22.09;24.86
62524;BME280;53689;56.878;60.672;2024-01-30T04:43:11;98212.72;;;22.09;24.76
62524;BME280;53689;56.878;60.672;2024-01-30T04:45:39;98210.22;;;22.08;24.39
62524;BME280;53689;56.878;60.672;2024-01-30T04:48:07;98205.66;;;22.08;24.00
62524;BME280;53689;56.878;60.672;2024-01-30T04:50:35;98210.22;;;22.08;24.13
62524;BME280;53689;56.878;60.672;2024-01-30T04:53:03;98208.13;;;22.10;23.74
62524;BME280;53689;56.878;60.672;2024-01-30T04:55:31;98202.75;;;22.10;23.90
62524;BME280;53689;56.878;60.672;2024-01-30T04:58:01;98215.22;;;22.11;24.01
62524;BME280;53689;56.878;60.672;2024-01-30T05:00:28;98205.44;;;22.10;24.30
62524;BME280;53689;56.878;60.672;2024-01-30T05:02:56;98200.69;;;22.12;22.72
62524;BME280;53689;56.878;60.672;2024-01-30T05:05:24;98206.28;;;22.10;24.49
62524;BME280;53689;56.878;60.672;2024-01-30T05:07:52;98203.41;;;22.18;21.99
62524;BME280;53689;56.878;60.672;2024-01-30T05:10:20;98199.88;;;22.18;21.75
62524;BME280;53689;56.878;60.672;2024-01-30T05:12:48;98194.47;;;22.11;23.42
62524;BME280;53689;56.878;60.672;2024-01-30T05:15:17;98193.66;;;22.11;23.51
62524;BME280;53689;56.878;60.672;2024-01-30T05:17:45;98188.25;;;22.11;23.73
62524;BME280;53689;56.878;60.672;2024-01-30T05:20:13;98186.19;;;22.13;23.97
62524;BME280;53689;56.878;60.672;2024-01-30T05:22:41;98184.53;;;22.12;23.41
62524;BME280;53689;56.878;60.672;2024-01-30T05:25:09;98175.59;;;22.11;22.54
62524;BME280;53689;56.878;60.672;2024-01-30T05:27:38;98176.44;;;22.12;23.77
62524;BME280;53689;56.878;60.672;2024-01-30T05:30:07;98179.53;;;22.09;23.26
62524;BME280;53689;56.878;60.672;2024-01-30T05:32:36;98177.44;;;22.04;24.35
62524;BME280;53689;56.878;60.672;2024-01-30T05:35:05;98172.66;;;21.99;22.90
62524;BME280;53689;56.878;60.672;2024-01-30T05:37:33;98168.97;;;22.07;23.71
62524;BME280;53689;56.878;60.672;2024-01-30T05:40:01;98167.06;;;22.08;22.72
62524;BME280;53689;56.878;60.672;2024-01-30T05:42:29;98164.38;;;22.14;24.20
62524;BME280;53689;56.878;60.672;2024-01-30T05:44:57;98157.34;;;22.13;23.36
62524;BME280;53689;56.878;60.672;2024-01-30T05:47:25;98157.56;;;22.12;23.36
62524;BME280;53689;56.878;60.672;2024-01-30T05:49:54;98143.03;;;22.13;23.84
62524;BME280;53689;56.878;60.672;2024-01-30T05:52:22;98150.91;;;22.14;24.60
62524;BME280;53689;56.878;60.672;2024-01-30T05:54:50;98148.03;;;22.16;23.89
62524;BME280;53689;56.878;60.672;2024-01-30T05:57:19;98150.09;;;22.27;24.05
62524;BME280;53689;56.878;60.672;2024-01-30T05:59:46;98143.03;;;22.13;23.35
62524;BME280;53689;56.878;60.672;2024-01-30T06:02:14;98134.72;;;22.14;24.47
62524;BME280;53689;56.878;60.672;2024-01-30T06:04:42;98151.13;;;22.13;23.88
62524;BME280;53689;56.878;60.672;2024-01-30T06:07:12;98143.03;;;22.13;24.64
62524;BME280;53689;56.878;60.672;2024-01-30T06:09:39;98133.50;;;22.17;24.05
62524;BME280;53689;56.878;60.672;2024-01-30T06:12:08;98132.50;;;22.31;23.71
62524;BME280;53689;56.878;60.672;2024-01-30T06:14:36;98122.94;;;22.15;23.46
62524;BME280;53689;56.878;60.672;2024-01-30T06:17:04;98129.56;;;22.13;24.92
62524;BME280;53689;56.878;60.672;2024-01-30T06:19:32;98124.38;;;22.04;24.47
62524;BME280;53689;56.878;60.672;2024-01-30T06:22:00;98129.34;;;22.08;25.17
62524;BME280;53689;56.878;60.672;2024-01-30T06:24:29;98121.47;;;22.13;24.51
62524;BME280;53689;56.878;60.672;2024-01-30T06:26:57;98112.34;;;22.14;23.77
62524;BME280;53689;56.878;60.672;2024-01-30T06:29:25;98114.63;;;22.17;24.57
62524;BME280;53689;56.878;60.672;2024-01-30T06:31:53;98111.94;;;22.17;24.38
62524;BME280;53689;56.878;60.672;2024-01-30T06:34:21;98099.91;;;22.13;23.94
62524;BME280;53689;56.878;60.672;2024-01-30T06:36:49;98101.16;;;22.10;22.34
62524;BME280;53689;56.878;60.672;2024-01-30T06:39:17;98091.19;;;22.11;24.66
62524;BME280;53689;56.878;60.672;2024-01-30T06:41:47;98100.09;;;22.11;24.58
62524;BME280;53689;56.878;60.672;2024-01-30T06:44:15;98099.06;;;22.12;24.22
62524;BME280;53689;56.878;60.672;2024-01-30T06:46:43;98096.13;;;22.00;24.58
62524;BME280;53689;56.878;60.672;2024-01-30T06:49:11;98091.41;;;22.02;25.08
62524;BME280;53689;56.878;60.672;2024-01-30T06:51:39;98093.25;;;22.09;24.84
62524;BME280;53689;56.878;60.672;2024-01-30T06:54:07;98084.13;;;22.10;23.78
62524;BME280;53689;56.878;60.672;2024-01-30T06:56:35;98080.00;;;22.07;22.33
62524;BME280;53689;56.878;60.672;2024-01-30T06:59:04;98081.66;;;22.08;23.38
62524;BME280;53689;56.878;60.672;2024-01-30T07:01:33;98071.06;;;22.00;23.85
62524;BME280;53689;56.878;60.672;2024-01-30T07:04:01;98074.38;;;22.09;23.46
62524;BME280;53689;56.878;60.672;2024-01-30T07:06:29;98065.47;;;22.15;24.07
62524;BME280;53689;56.878;60.672;2024-01-30T07:08:57;98064.63;;;22.14;22.66
62524;BME280;53689;56.878;60.672;2024-01-30T07:11:25;98062.78;;;22.01;24.09
62524;BME280;53689;56.878;60.672;2024-01-30T07:13:54;98055.09;;;21.98;24.45
62524;BME280;53689;56.878;60.672;2024-01-30T07:16:23;98050.53;;;21.92;23.73
62524;BME280;53689;56.878;60.672;2024-01-30T07:18:51;98048.25;;;22.02;24.62
62524;BME280;53689;56.878;60.672;2024-01-30T07:21:19;98040.38;;;22.01;24.36
62524;BME280;53689;56.878;60.672;2024-01-30T07:23:47;98038.09;;;22.04;24.08
62524;BME280;53689;56.878;60.672;2024-01-30T07:26:14;98043.50;;;22.04;25.47
62524;BME280;53689;56.878;60.672;2024-01-30T07:28:42;98032.28;;;22.01;24.88
62524;BME280;53689;56.878;60.672;2024-01-30T07:31:10;98038.72;;;21.93;25.45
62524;BME280;53689;56.878;60.672;2024-01-30T07:33:39;98031.88;;;21.97;24.52
62524;BME280;53689;56.878;60.672;2024-01-30T07:36:07;98028.97;;;21.92;24.90
62524;BME280;53689;56.878;60.672;2024-01-30T07:38:35;98024.81;;;22.03;25.35
62524;BME280;53689;56.878;60.672;2024-01-30T07:41:03;98018.16;;;21.85;24.22
62524;BME280;53689;56.878;60.672;2024-01-30T07:43:31;98012.19;;;21.97;24.82
62524;BME280;53689;56.878;60.672;2024-01-30T07:45:59;98017.56;;;22.03;24.77
62524;BME280;53689;56.878;60.672;2024-01-30T07:48:26;98014.03;;;22.03;25.20
62524;BME280;53689;56.878;60.672;2024-01-30T07:50:56;98006.56;;;22.05;24.79
62524;BME280;53689;56.878;60.672;2024-01-30T07:53:23;97999.31;;;21.92;24.33
62524;BME280;53689;56.878;60.672;2024-01-30T07:56:16;98004.09;;;21.97;24.91
62524;BME280;53689;56.878;60.672;2024-01-30T07:58:44;97996.81;;;21.90;24.01
62524;BME280;53689;56.878;60.672;2024-01-30T08:01:14;97988.31;;;21.94;23.96
62524;BME280;53689;56.878;60.672;2024-01-30T08:03:42;97992.06;;;21.93;24.96
62524;BME280;53689;56.878;60.672;2024-01-30T08:06:12;97987.94;;;21.97;24.82
62524;BME280;53689;56.878;60.672;2024-01-30T08:08:40;97987.09;;;21.89;25.13
62524;BME280;53689;56.878;60.672;2024-01-30T08:11:08;97986.25;;;21.89;23.94
62524;BME280;53689;56.878;60.672;2024-01-30T08:13:35;97975.47;;;21.89;23.70
62524;BME280;53689;56.878;60.672;2024-01-30T08:16:04;97971.53;;;21.92;23.64
62524;BME280;53689;56.878;60.672;2024-01-30T08:18:32;97971.72;;;21.90;23.93
62524;BME280;53689;56.878;60.672;2024-01-30T08:21:00;97970.06;;;21.89;22.68
62524;BME280;53689;56.878;60.672;2024-01-30T08:23:29;97963.66;;;21.97;24.94
62524;BME280;53689;56.878;60.672;2024-01-30T08:25:57;97954.75;;;21.83;23.37
62524;BME280;53689;56.878;60.672;2024-01-30T08:28:25;97960.56;;;21.86;24.87
62524;BME280;53689;56.878;60.672;2024-01-30T08:30:53;97959.09;;;21.90;24.74
62524;BME280;53689;56.878;60.672;2024-01-30T08:33:21;97952.47;;;21.86;24.65
62524;BME280;53689;56.878;60.672;2024-01-30T08:35:49;97956.59;;;21.89;24.75
62524;BME280;53689;56.878;60.672;2024-01-30T08:38:17;97943.13;;;21.96;24.31
62524;BME280;53689;56.878;60.672;2024-01-30T08:40:46;97936.69;;;21.90;23.44
62524;BME280;53689;56.878;60.672;2024-01-30T08:43:14;97938.56;;;21.89;23.08
62524;BME280;53689;56.878;60.672;2024-01-30T08:45:42;97938.56;;;21.89;24.42
62524;BME280;53689;56.878;60.672;2024-01-30T08:48:10;97927.97;;;21.95;24.08
62524;BME280;53689;56.878;60.672;2024-01-30T08:50:38;97925.94;;;21.97;23.56
62524;BME280;53689;56.878;60.672;2024-01-30T08:53:06;97927.34;;;21.99;22.88
62524;BME280;53689;56.878;60.672;2024-01-30T08:55:34;97933.38;;;22.01;23.35
62524;BME280;53689;56.878;60.672;2024-01-30T08:58:03;97929.63;;;21.96;23.99
62524;BME280;53689;56.878;60.672;2024-01-30T09:00:32;97919.09;;;21.87;23.70
62524;BME280;53689;56.878;60.672;2024-01-30T09:02:59;97918.88;;;21.89;23.84
62524;BME280;53689;56.878;60.672;2024-01-30T09:05:27;97913.06;;;21.79;24.51
62524;BME280;53689;56.878;60.672;2024-01-30T09:07:55;97906.25;;;21.83;24.61
62524;BME280;53689;56.878;60.672;2024-01-30T09:10:23;97903.53;;;21.89;24.61
62524;BME280;53689;56.878;60.672;2024-01-30T09:12:51;97896.25;;;21.90;25.83
62524;BME280;53689;56.878;60.672;2024-01-30T09:15:22;97901.03;;;21.95;25.62
62524;BME280;53689;56.878;60.672;2024-01-30T09:17:53;97898.97;;;21.90;25.03
62524;BME280;53689;56.878;60.672;2024-01-30T09:20:20;97893.34;;;21.98;24.10
62524;BME280;53689;56.878;60.672;2024-01-30T09:22:48;97897.09;;;21.97;24.44
62524;BME280;53689;56.878;60.672;2024-01-30T09:25:16;97892.13;;;21.94;22.76
62524;BME280;53689;56.878;60.672;2024-01-30T09:27:44;97886.72;;;22.01;24.67
62524;BME280;53689;56.878;60.672;2024-01-30T09:30:12;97893.34;;;22.12;24.73
62524;BME280;53689;56.878;60.672;2024-01-30T09:32:42;97889.63;;;21.99;24.54
62524;BME280;53689;56.878;60.672;2024-01-30T09:35:10;97886.09;;;22.06;26.78
62524;BME280;53689;56.878;60.672;2024-01-30T09:37:38;97882.56;;;21.98;25.86
62524;BME280;53689;56.878;60.672;2024-01-30T09:40:08;97883.81;;;22.09;27.65
62524;BME280;53689;56.878;60.672;2024-01-30T09:42:36;97874.31;;;21.86;26.67
62524;BME280;53689;56.878;60.672;2024-01-30T09:45:05;97868.47;;;21.96;29.18
62524;BME280;53689;56.878;60.672;2024-01-30T09:47:39;97867.03;;;21.94;25.86
62524;BME280;53689;56.878;60.672;2024-01-30T09:50:10;97864.31;;;22.00;25.80
62524;BME280;53689;56.878;60.672;2024-01-30T09:52:38;97863.47;;;22.07;25.57
62524;BME280;53689;56.878;60.672;2024-01-30T09:55:07;97862.66;;;22.06;26.06
62524;BME280;53689;56.878;60.672;2024-01-30T09:57:35;97851.47;;;22.02;25.04
62524;BME280;53689;56.878;60.672;2024-01-30T10:00:04;97852.69;;;22.07;25.00
62524;BME280;53689;56.878;60.672;2024-01-30T10:02:38;97853.13;;;22.10;25.32
62524;BME280;53689;56.878;60.672;2024-01-30T10:05:09;97859.75;;;22.08;24.63
62524;BME280;53689;56.878;60.672;2024-01-30T10:07:39;97857.47;;;22.11;24.61
62524;BME280;53689;56.878;60.672;2024-01-30T10:10:17;97842.91;;;22.26;23.99
62524;BME280;53689;56.878;60.672;2024-01-30T10:12:45;97842.91;;;22.26;23.56
62524;BME280;53689;56.878;60.672;2024-01-30T10:15:13;97837.16;;;22.15;23.41
62524;BME280;53689;56.878;60.672;2024-01-30T10:17:42;97839.44;;;22.12;23.70
62524;BME280;53689;56.878;60.672;2024-01-30T10:20:12;97846.66;;;22.18;23.34
62524;BME280;53689;56.878;60.672;2024-01-30T10:22:40;97841.09;;;22.13;23.48
62524;BME280;53689;56.878;60.672;2024-01-30T10:25:09;97837.53;;;22.19;21.27
62524;BME280;53689;56.878;60.672;2024-01-30T10:27:39;97837.72;;;22.24;22.81
62524;BME280;53689;56.878;60.672;2024-01-30T10:30:08;97826.09;;;22.30;23.06
62524;BME280;53689;56.878;60.672;2024-01-30T10:32:36;97832.72;;;22.35;23.02
62524;BME280;53689;56.878;60.672;2024-01-30T10:35:04;97824.19;;;22.38;22.59
62524;BME280;53689;56.878;60.672;2024-01-30T10:37:33;97823.19;;;22.25;22.92
62524;BME280;53689;56.878;60.672;2024-01-30T10:40:03;97816.09;;;22.38;23.54
62524;BME280;53689;56.878;60.672;2024-01-30T10:42:32;97825.22;;;22.43;22.25
62524;BME280;53689;56.878;60.672;2024-01-30T10:45:05;97817.53;;;22.40;22.39
62524;BME280;53689;56.878;60.672;2024-01-30T10:47:34;97823.53;;;22.42;23.14
62524;BME280;53689;56.878;60.672;2024-01-30T10:50:03;97814.03;;;22.40;22.33
62524;BME280;53689;56.878;60.672;2024-01-30T10:52:33;97817.56;;;22.34;22.63
62524;BME280;53689;56.878;60.672;2024-01-30T10:55:01;97807.88;;;22.26;21.77
62524;BME280;53689;56.878;60.672;2024-01-30T10:57:34;97810.28;;;22.41;20.64
62524;BME280;53689;56.878;60.672;2024-01-30T11:00:04;97803.69;;;22.30;22.85
62524;BME280;53689;56.878;60.672;2024-01-30T11:02:33;97806.59;;;22.35;22.70
62524;BME280;53689;56.878;60.672;2024-01-30T11:05:01;97813.41;;;22.38;21.70
62524;BME280;53689;56.878;60.672;2024-01-30T11:07:29;97806.94;;;22.52;22.69
62524;BME280;53689;56.878;60.672;2024-01-30T11:10:02;97805.06;;;22.46;22.06
62524;BME280;53689;56.878;60.672;2024-01-30T11:12:32;97796.97;;;22.46;20.97
62524;BME280;53689;56.878;60.672;2024-01-30T11:15:05;97801.31;;;22.47;21.90
62524;BME280;53689;56.878;60.672;2024-01-30T11:17:43;97796.19;;;22.39;23.09
62524;BME280;53689;56.878;60.672;2024-01-30T11:20:12;97795.56;;;22.37;23.15
62524;BME280;53689;56.878;60.672;2024-01-30T11:22:42;97792.09;;;22.29;21.85
62524;BME280;53689;56.878;60.672;2024-01-30T11:25:15;97794.50;;;22.38;22.22
62524;BME280;53689;56.878;60.672;2024-01-30T11:27:44;97780.19;;;22.44;21.82
62524;BME280;53689;56.878;60.672;2024-01-30T11:30:21;97772.28;;;22.42;21.72
62524;BME280;53689;56.878;60.672;2024-01-30T11:33:01;97772.09;;;22.44;22.27
62524;BME280;53689;56.878;60.672;2024-01-30T11:35:32;97766.09;;;22.42;22.81
62524;BME280;53689;56.878;60.672;2024-01-30T11:38:01;97768.59;;;22.43;22.49
62524;BME280;53689;56.878;60.672;2024-01-30T11:40:30;97764.00;;;22.44;22.59
62524;BME280;53689;56.878;60.672;2024-01-30T11:43:00;97764.59;;;22.46;21.07
62524;BME280;53689;56.878;60.672;2024-01-30T11:45:28;97756.69;;;22.58;21.65
62524;BME280;53689;56.878;60.672;2024-01-30T11:47:56;97763.09;;;22.64;19.95
62524;BME280;53689;56.878;60.672;2024-01-30T11:50:26;97759.44;;;22.51;21.59
62524;BME280;53689;56.878;60.672;2024-01-30T11:52:55;97755.25;;;22.49;20.89
62524;BME280;53689;56.878;60.672;2024-01-30T11:55:23;97751.53;;;22.50;22.48
62524;BME280;53689;56.878;60.672;2024-01-30T11:57:56;97746.34;;;22.48;22.03
62524;BME280;53689;56.878;60.672;2024-01-30T12:00:25;97743.25;;;22.51;22.03
62524;BME280;53689;56.878;60.672;2024-01-30T12:02:54;97748.03;;;22.49;21.20
62524;BME280;53689;56.878;60.672;2024-01-30T12:05:23;97738.91;;;22.50;21.72
62524;BME280;53689;56.878;60.672;2024-01-30T12:07:52;97745.34;;;22.49;22.74
62524;BME280;53689;56.878;60.672;2024-01-30T12:10:20;97739.94;;;22.49;22.66
62524;BME280;53689;56.878;60.672;2024-01-30T12:12:50;97739.72;;;22.51;22.28
62524;BME280;53689;56.878;60.672;2024-01-30T12:15:21;97734.94;;;22.53;21.52
62524;BME280;53689;56.878;60.672;2024-01-30T12:17:49;97742.41;;;22.51;22.08
62524;BME280;53689;56.878;60.672;2024-01-30T12:20:18;97736.81;;;22.52;21.46
62524;BME280;53689;56.878;60.672;2024-01-30T12:22:48;97735.16;;;22.51;21.78
62524;BME280;53689;56.878;60.672;2024-01-30T12:25:17;97734.31;;;22.51;22.41
62524;BME280;53689;56.878;60.672;2024-01-30T12:27:46;97733.06;;;22.53;22.42
62524;BME280;53689;56.878;60.672;2024-01-30T12:30:15;97726.84;;;22.53;21.28
62524;BME280;53689;56.878;60.672;2024-01-30T12:32:45;97724.56;;;22.50;22.76
62524;BME280;53689;56.878;60.672;2024-01-30T12:35:15;97726.22;;;22.51;22.85
62524;BME280;53689;56.878;60.672;2024-01-30T12:37:44;97732.88;;;22.48;21.97
62524;BME280;53689;56.878;60.672;2024-01-30T12:40:13;97726.22;;;22.44;22.87
62524;BME280;53689;56.878;60.672;2024-01-30T12:42:41;97716.94;;;22.40;21.78
62524;BME280;53689;56.878;60.672;2024-01-30T12:45:09;97716.50;;;22.43;21.98
62524;BME280;53689;56.878;60.672;2024-01-30T12:47:37;97709.84;;;22.45;22.61
62524;BME280;53689;56.878;60.672;2024-01-30T12:50:07;97709.44;;;22.42;23.05
62524;BME280;53689;56.878;60.672;2024-01-30T12:52:35;97717.94;;;22.45;23.22
62524;BME280;53689;56.878;60.672;2024-01-30T12:55:03;97708.78;;;22.47;22.95
62524;BME280;53689;56.878;60.672;2024-01-30T12:57:32;97710.66;;;22.46;23.54